sensor_id;sensor_type;location;lat;lon;timestamp;P1;durP1;ratioP1;P2;durP2;ratioP2
13801;SDS011;6972;51.518;6.918;2023-07-28T00:00:48;6.60;;;5.18;;
13801;SDS011;6972;51.518;6.918;2023-07-28T00:03:14;7.93;;;5.78;;
13801;SDS011;6972;51.518;6.918;2023-07-28T00:05:40;7.22;;;5.88;;
13801;SDS011;6972;51.518;6.918;2023-07-28T00:08:06;9.15;;;6.30;;
13801;SDS011;6972;51.518;6.918;2023-07-28T00:10:32;7.97;;;5.60;;
13801;SDS011;6972;51.518;6.918;2023-07-28T00:12:58;6.95;;;6.15;;
13801;SDS011;6972;51.518;6.918;2023-07-28T00:15:26;7.55;;;6.10;;
13801;SDS011;6972;51.518;6.918;2023-07-28T00:17:52;8.27;;;6.43;;
13801;SDS011;6972;51.518;6.918;2023-07-28T00:20:18;10.52;;;6.25;;
13801;SDS011;6972;51.518;6.918;2023-07-28T00:22:44;9.90;;;7.13;;
13801;SDS011;6972;51.518;6.918;2023-07-28T00:25:10;9.45;;;6.55;;
13801;SDS011;6972;51.518;6.918;2023-07-28T00:27:36;12.27;;;6.07;;
13801;SDS011;6972;51.518;6.918;2023-07-28T00:30:02;8.07;;;5.55;;
13801;SDS011;6972;51.518;6.918;2023-07-28T00:32:28;12.23;;;5.80;;
13801;SDS011;6972;51.518;6.918;2023-07-28T00:34:54;6.93;;;5.90;;
13801;SDS011;6972;51.518;6.918;2023-07-28T00:37:20;7.07;;;5.80;;
13801;SDS011;6972;51.518;6.918;2023-07-28T00:39:46;6.45;;;5.82;;
13801;SDS011;6972;51.518;6.918;2023-07-28T00:42:12;6.20;;;5.10;;
13801;SDS011;6972;51.518;6.918;2023-07-28T00:44:38;5.57;;;5.07;;
13801;SDS011;6972;51.518;6.918;2023-07-28T00:47:05;6.20;;;5.57;;
13801;SDS011;6972;51.518;6.918;2023-07-28T00:49:31;8.93;;;5.40;;
13801;SDS011;6972;51.518;6.918;2023-07-28T00:51:57;5.63;;;4.57;;
13801;SDS011;6972;51.518;6.918;2023-07-28T00:54:23;7.07;;;4.72;;
13801;SDS011;6972;51.518;6.918;2023-07-28T00:56:49;5.75;;;4.38;;
13801;SDS011;6972;51.518;6.918;2023-07-28T00:59:16;5.15;;;4.05;;
13801;SDS011;6972;51.518;6.918;2023-07-28T01:01:42;4.32;;;3.40;;
13801;SDS011;6972;51.518;6.918;2023-07-28T01:04:08;6.10;;;4.00;;
13801;SDS011;6972;51.518;6.918;2023-07-28T01:06:47;4.82;;;3.80;;
13801;SDS011;6972;51.518;6.918;2023-07-28T01:09:18;5.00;;;3.70;;
13801;SDS011;6972;51.518;6.918;2023-07-28T01:11:57;5.85;;;4.03;;
13801;SDS011;6972;51.518;6.918;2023-07-28T01:14:25;4.38;;;3.97;;
13801;SDS011;6972;51.518;6.918;2023-07-28T01:16:51;4.35;;;3.88;;
13801;SDS011;6972;51.518;6.918;2023-07-28T01:19:17;5.43;;;3.72;;
13801;SDS011;6972;51.518;6.918;2023-07-28T01:21:45;5.82;;;4.07;;
13801;SDS011;6972;51.518;6.918;2023-07-28T01:26:40;4.60;;;4.20;;
13801;SDS011;6972;51.518;6.918;2023-07-28T01:29:06;4.65;;;4.25;;
13801;SDS011;6972;51.518;6.918;2023-07-28T01:31:32;8.13;;;4.05;;
13801;SDS011;6972;51.518;6.918;2023-07-28T01:33:58;4.40;;;3.97;;
13801;SDS011;6972;51.518;6.918;2023-07-28T01:36:24;4.60;;;4.20;;
13801;SDS011;6972;51.518;6.918;2023-07-28T01:38:50;4.50;;;4.05;;
13801;SDS011;6972;51.518;6.918;2023-07-28T01:41:19;5.43;;;4.13;;
13801;SDS011;6972;51.518;6.918;2023-07-28T01:43:46;7.55;;;4.25;;
13801;SDS011;6972;51.518;6.918;2023-07-28T01:46:12;5.03;;;4.20;;
13801;SDS011;6972;51.518;6.918;2023-07-28T01:48:38;5.68;;;3.80;;
13801;SDS011;6972;51.518;6.918;2023-07-28T01:51:04;4.40;;;3.80;;
13801;SDS011;6972;51.518;6.918;2023-07-28T01:53:30;4.07;;;3.67;;
13801;SDS011;6972;51.518;6.918;2023-07-28T01:55:56;4.25;;;3.90;;
13801;SDS011;6972;51.518;6.918;2023-07-28T01:58:22;6.28;;;4.35;;
13801;SDS011;6972;51.518;6.918;2023-07-28T02:00:48;5.47;;;4.10;;
13801;SDS011;6972;51.518;6.918;2023-07-28T02:03:14;7.18;;;4.50;;
13801;SDS011;6972;51.518;6.918;2023-07-28T02:05:40;5.72;;;4.28;;
13801;SDS011;6972;51.518;6.918;2023-07-28T02:08:06;7.03;;;4.50;;
13801;SDS011;6972;51.518;6.918;2023-07-28T02:10:32;5.88;;;4.65;;
13801;SDS011;6972;51.518;6.918;2023-07-28T02:12:58;6.35;;;4.60;;
13801;SDS011;6972;51.518;6.918;2023-07-28T02:15:24;7.25;;;4.30;;
13801;SDS011;6972;51.518;6.918;2023-07-28T02:17:50;5.22;;;4.32;;
13801;SDS011;6972;51.518;6.918;2023-07-28T02:20:16;5.45;;;4.80;;
13801;SDS011;6972;51.518;6.918;2023-07-28T02:22:42;5.95;;;4.63;;
13801;SDS011;6972;51.518;6.918;2023-07-28T02:25:09;5.10;;;4.65;;
13801;SDS011;6972;51.518;6.918;2023-07-28T02:27:36;6.53;;;4.57;;
13801;SDS011;6972;51.518;6.918;2023-07-28T02:30:03;7.53;;;4.25;;
13801;SDS011;6972;51.518;6.918;2023-07-28T02:32:29;6.60;;;4.30;;
13801;SDS011;6972;51.518;6.918;2023-07-28T02:34:56;5.82;;;3.90;;
13801;SDS011;6972;51.518;6.918;2023-07-28T02:37:22;5.15;;;4.30;;
13801;SDS011;6972;51.518;6.918;2023-07-28T02:39:48;4.47;;;4.07;;
13801;SDS011;6972;51.518;6.918;2023-07-28T02:42:14;7.93;;;4.80;;
13801;SDS011;6972;51.518;6.918;2023-07-28T02:44:40;7.32;;;4.45;;
13801;SDS011;6972;51.518;6.918;2023-07-28T02:47:06;5.45;;;4.95;;
13801;SDS011;6972;51.518;6.918;2023-07-28T02:49:32;5.28;;;4.28;;
13801;SDS011;6972;51.518;6.918;2023-07-28T02:52:01;5.97;;;5.38;;
13801;SDS011;6972;51.518;6.918;2023-07-28T02:54:28;8.77;;;5.43;;
13801;SDS011;6972;51.518;6.918;2023-07-28T02:56:54;7.03;;;5.65;;
13801;SDS011;6972;51.518;6.918;2023-07-28T02:59:20;6.03;;;5.43;;
13801;SDS011;6972;51.518;6.918;2023-07-28T03:01:48;6.63;;;5.47;;
13801;SDS011;6972;51.518;6.918;2023-07-28T03:04:17;8.23;;;6.05;;
13801;SDS011;6972;51.518;6.918;2023-07-28T03:06:44;7.60;;;6.47;;
13801;SDS011;6972;51.518;6.918;2023-07-28T03:09:10;8.23;;;6.20;;
13801;SDS011;6972;51.518;6.918;2023-07-28T03:11:36;8.63;;;6.80;;
13801;SDS011;6972;51.518;6.918;2023-07-28T03:14:02;9.77;;;6.95;;
13801;SDS011;6972;51.518;6.918;2023-07-28T03:16:28;8.00;;;6.75;;
13801;SDS011;6972;51.518;6.918;2023-07-28T03:18:54;9.20;;;6.10;;
13801;SDS011;6972;51.518;6.918;2023-07-28T03:21:20;8.43;;;6.28;;
13801;SDS011;6972;51.518;6.918;2023-07-28T03:23:46;7.07;;;6.38;;
13801;SDS011;6972;51.518;6.918;2023-07-28T03:26:12;7.32;;;6.00;;
13801;SDS011;6972;51.518;6.918;2023-07-28T03:28:38;7.70;;;6.78;;
13801;SDS011;6972;51.518;6.918;2023-07-28T03:31:04;9.07;;;6.15;;
13801;SDS011;6972;51.518;6.918;2023-07-28T03:33:30;7.35;;;5.80;;
13801;SDS011;6972;51.518;6.918;2023-07-28T03:35:56;6.72;;;5.78;;
13801;SDS011;6972;51.518;6.918;2023-07-28T03:38:22;7.13;;;5.40;;
13801;SDS011;6972;51.518;6.918;2023-07-28T03:40:49;7.47;;;5.47;;
13801;SDS011;6972;51.518;6.918;2023-07-28T03:43:15;5.65;;;4.97;;
13801;SDS011;6972;51.518;6.918;2023-07-28T03:45:41;5.97;;;5.22;;
13801;SDS011;6972;51.518;6.918;2023-07-28T03:48:08;6.28;;;5.32;;
13801;SDS011;6972;51.518;6.918;2023-07-28T03:50:37;5.38;;;4.78;;
13801;SDS011;6972;51.518;6.918;2023-07-28T03:53:03;7.97;;;5.35;;
13801;SDS011;6972;51.518;6.918;2023-07-28T03:55:29;6.50;;;5.05;;
13801;SDS011;6972;51.518;6.918;2023-07-28T03:57:55;7.47;;;5.18;;
13801;SDS011;6972;51.518;6.918;2023-07-28T04:00:21;8.45;;;5.20;;
13801;SDS011;6972;51.518;6.918;2023-07-28T04:02:47;6.22;;;5.00;;
13801;SDS011;6972;51.518;6.918;2023-07-28T04:05:13;9.82;;;5.28;;
13801;SDS011;6972;51.518;6.918;2023-07-28T04:07:40;8.27;;;5.60;;
13801;SDS011;6972;51.518;6.918;2023-07-28T04:10:06;7.13;;;6.32;;
13801;SDS011;6972;51.518;6.918;2023-07-28T04:12:32;6.82;;;5.93;;
13801;SDS011;6972;51.518;6.918;2023-07-28T04:14:58;7.75;;;5.80;;
13801;SDS011;6972;51.518;6.918;2023-07-28T04:17:24;8.23;;;5.93;;
13801;SDS011;6972;51.518;6.918;2023-07-28T04:19:50;6.10;;;5.47;;
13801;SDS011;6972;51.518;6.918;2023-07-28T04:22:16;6.20;;;5.53;;
13801;SDS011;6972;51.518;6.918;2023-07-28T04:24:46;7.70;;;5.68;;
13801;SDS011;6972;51.518;6.918;2023-07-28T04:27:13;6.03;;;5.03;;
13801;SDS011;6972;51.518;6.918;2023-07-28T04:29:39;7.05;;;5.03;;
13801;SDS011;6972;51.518;6.918;2023-07-28T04:32:05;5.63;;;4.90;;
13801;SDS011;6972;51.518;6.918;2023-07-28T04:34:34;7.70;;;5.13;;
13801;SDS011;6972;51.518;6.918;2023-07-28T04:37:00;6.90;;;4.93;;
13801;SDS011;6972;51.518;6.918;2023-07-28T04:39:27;8.20;;;5.18;;
13801;SDS011;6972;51.518;6.918;2023-07-28T04:41:53;7.03;;;5.50;;
13801;SDS011;6972;51.518;6.918;2023-07-28T04:44:22;10.73;;;6.22;;
13801;SDS011;6972;51.518;6.918;2023-07-28T04:46:48;9.05;;;5.15;;
13801;SDS011;6972;51.518;6.918;2023-07-28T04:49:14;7.15;;;5.32;;
13801;SDS011;6972;51.518;6.918;2023-07-28T04:51:40;7.75;;;5.63;;
13801;SDS011;6972;51.518;6.918;2023-07-28T04:54:06;10.32;;;5.35;;
13801;SDS011;6972;51.518;6.918;2023-07-28T04:56:32;8.52;;;5.38;;
13801;SDS011;6972;51.518;6.918;2023-07-28T04:58:58;6.88;;;5.50;;
13801;SDS011;6972;51.518;6.918;2023-07-28T05:01:24;5.70;;;4.85;;
13801;SDS011;6972;51.518;6.918;2023-07-28T05:03:50;7.40;;;5.30;;
13801;SDS011;6972;51.518;6.918;2023-07-28T05:06:16;7.65;;;5.38;;
13801;SDS011;6972;51.518;6.918;2023-07-28T05:08:43;7.43;;;4.93;;
13801;SDS011;6972;51.518;6.918;2023-07-28T05:11:09;5.85;;;4.78;;
13801;SDS011;6972;51.518;6.918;2023-07-28T05:13:35;6.18;;;4.60;;
13801;SDS011;6972;51.518;6.918;2023-07-28T05:16:01;6.95;;;4.20;;
13801;SDS011;6972;51.518;6.918;2023-07-28T05:18:27;4.72;;;4.28;;
13801;SDS011;6972;51.518;6.918;2023-07-28T05:20:53;5.00;;;4.18;;
13801;SDS011;6972;51.518;6.918;2023-07-28T05:23:19;6.60;;;4.18;;
13801;SDS011;6972;51.518;6.918;2023-07-28T05:25:45;5.30;;;4.03;;
13801;SDS011;6972;51.518;6.918;2023-07-28T05:28:11;4.45;;;4.05;;
13801;SDS011;6972;51.518;6.918;2023-07-28T05:30:37;4.57;;;3.50;;
13801;SDS011;6972;51.518;6.918;2023-07-28T05:33:03;4.05;;;3.33;;
13801;SDS011;6972;51.518;6.918;2023-07-28T05:35:29;4.05;;;3.28;;
13801;SDS011;6972;51.518;6.918;2023-07-28T05:37:55;5.47;;;3.90;;
13801;SDS011;6972;51.518;6.918;2023-07-28T05:40:21;4.10;;;3.65;;
13801;SDS011;6972;51.518;6.918;2023-07-28T05:42:47;7.50;;;4.35;;
13801;SDS011;6972;51.518;6.918;2023-07-28T05:45:14;4.57;;;4.05;;
13801;SDS011;6972;51.518;6.918;2023-07-28T05:47:40;5.82;;;4.10;;
13801;SDS011;6972;51.518;6.918;2023-07-28T05:50:06;4.65;;;3.72;;
13801;SDS011;6972;51.518;6.918;2023-07-28T05:52:32;4.40;;;3.50;;
13801;SDS011;6972;51.518;6.918;2023-07-28T05:54:58;8.23;;;4.10;;
13801;SDS011;6972;51.518;6.918;2023-07-28T05:57:25;4.15;;;3.70;;
13801;SDS011;6972;51.518;6.918;2023-07-28T05:59:51;4.05;;;3.50;;
13801;SDS011;6972;51.518;6.918;2023-07-28T06:02:17;4.72;;;3.60;;
13801;SDS011;6972;51.518;6.918;2023-07-28T06:04:43;4.97;;;3.80;;
13801;SDS011;6972;51.518;6.918;2023-07-28T06:07:09;5.45;;;3.70;;
13801;SDS011;6972;51.518;6.918;2023-07-28T06:09:35;4.75;;;4.18;;
13801;SDS011;6972;51.518;6.918;2023-07-28T06:12:02;5.40;;;4.22;;
13801;SDS011;6972;51.518;6.918;2023-07-28T06:14:29;8.15;;;4.47;;
13801;SDS011;6972;51.518;6.918;2023-07-28T06:16:55;7.20;;;4.25;;
13801;SDS011;6972;51.518;6.918;2023-07-28T06:19:21;7.22;;;4.78;;
13801;SDS011;6972;51.518;6.918;2023-07-28T06:21:49;6.18;;;4.63;;
13801;SDS011;6972;51.518;6.918;2023-07-28T06:24:15;8.48;;;4.93;;
13801;SDS011;6972;51.518;6.918;2023-07-28T06:26:41;6.20;;;4.78;;
13801;SDS011;6972;51.518;6.918;2023-07-28T06:29:07;7.70;;;5.30;;
13801;SDS011;6972;51.518;6.918;2023-07-28T06:31:34;7.75;;;4.65;;
13801;SDS011;6972;51.518;6.918;2023-07-28T06:34:00;7.18;;;5.20;;
13801;SDS011;6972;51.518;6.918;2023-07-28T06:36:26;7.40;;;4.90;;
13801;SDS011;6972;51.518;6.918;2023-07-28T06:38:52;7.05;;;5.00;;
13801;SDS011;6972;51.518;6.918;2023-07-28T06:41:20;6.57;;;4.70;;
13801;SDS011;6972;51.518;6.918;2023-07-28T06:43:46;6.22;;;4.90;;
13801;SDS011;6972;51.518;6.918;2023-07-28T06:46:14;6.88;;;4.90;;
13801;SDS011;6972;51.518;6.918;2023-07-28T06:48:40;11.45;;;5.20;;
13801;SDS011;6972;51.518;6.918;2023-07-28T06:51:06;6.05;;;4.97;;
13801;SDS011;6972;51.518;6.918;2023-07-28T06:53:32;7.95;;;5.35;;
13801;SDS011;6972;51.518;6.918;2023-07-28T06:55:59;8.27;;;5.57;;
13801;SDS011;6972;51.518;6.918;2023-07-28T06:58:26;7.35;;;5.53;;
13801;SDS011;6972;51.518;6.918;2023-07-28T07:00:52;8.05;;;5.68;;
13801;SDS011;6972;51.518;6.918;2023-07-28T07:03:20;7.38;;;5.55;;
13801;SDS011;6972;51.518;6.918;2023-07-28T07:05:48;7.15;;;5.85;;
13801;SDS011;6972;51.518;6.918;2023-07-28T07:08:14;6.30;;;5.60;;
13801;SDS011;6972;51.518;6.918;2023-07-28T07:10:40;9.88;;;6.55;;
13801;SDS011;6972;51.518;6.918;2023-07-28T07:13:06;7.88;;;6.28;;
13801;SDS011;6972;51.518;6.918;2023-07-28T07:15:33;7.00;;;5.60;;
13801;SDS011;6972;51.518;6.918;2023-07-28T07:18:00;6.20;;;5.50;;
13801;SDS011;6972;51.518;6.918;2023-07-28T07:20:26;6.93;;;5.65;;
13801;SDS011;6972;51.518;6.918;2023-07-28T07:22:52;8.15;;;6.50;;
13801;SDS011;6972;51.518;6.918;2023-07-28T07:25:18;7.60;;;6.18;;
13801;SDS011;6972;51.518;6.918;2023-07-28T07:27:44;7.80;;;6.40;;
13801;SDS011;6972;51.518;6.918;2023-07-28T07:30:10;8.77;;;6.20;;
13801;SDS011;6972;51.518;6.918;2023-07-28T07:32:36;9.10;;;6.25;;
13801;SDS011;6972;51.518;6.918;2023-07-28T07:35:03;7.88;;;5.97;;
13801;SDS011;6972;51.518;6.918;2023-07-28T07:37:29;7.78;;;5.65;;
13801;SDS011;6972;51.518;6.918;2023-07-28T07:39:57;6.38;;;5.40;;
13801;SDS011;6972;51.518;6.918;2023-07-28T07:42:25;5.90;;;5.28;;
13801;SDS011;6972;51.518;6.918;2023-07-28T07:44:51;5.88;;;4.68;;
13801;SDS011;6972;51.518;6.918;2023-07-28T07:47:17;6.22;;;4.30;;
13801;SDS011;6972;51.518;6.918;2023-07-28T07:49:43;6.40;;;4.70;;
13801;SDS011;6972;51.518;6.918;2023-07-28T07:52:09;5.95;;;4.30;;
13801;SDS011;6972;51.518;6.918;2023-07-28T07:54:35;5.47;;;3.97;;
13801;SDS011;6972;51.518;6.918;2023-07-28T07:57:02;6.65;;;4.38;;
13801;SDS011;6972;51.518;6.918;2023-07-28T07:59:28;6.15;;;4.57;;
13801;SDS011;6972;51.518;6.918;2023-07-28T08:01:57;6.05;;;4.43;;
13801;SDS011;6972;51.518;6.918;2023-07-28T08:04:25;4.88;;;4.38;;
13801;SDS011;6972;51.518;6.918;2023-07-28T08:06:53;4.28;;;3.88;;
13801;SDS011;6972;51.518;6.918;2023-07-28T08:09:19;4.20;;;3.80;;
13801;SDS011;6972;51.518;6.918;2023-07-28T08:11:45;3.78;;;3.38;;
13801;SDS011;6972;51.518;6.918;2023-07-28T08:14:11;4.43;;;3.55;;
13801;SDS011;6972;51.518;6.918;2023-07-28T08:16:37;3.70;;;3.20;;
13801;SDS011;6972;51.518;6.918;2023-07-28T08:19:03;4.55;;;3.72;;
13801;SDS011;6972;51.518;6.918;2023-07-28T08:21:31;5.68;;;3.72;;
13801;SDS011;6972;51.518;6.918;2023-07-28T08:24:01;3.78;;;3.42;;
13801;SDS011;6972;51.518;6.918;2023-07-28T08:26:30;3.75;;;3.10;;
13801;SDS011;6972;51.518;6.918;2023-07-28T08:28:56;7.43;;;3.45;;
13801;SDS011;6972;51.518;6.918;2023-07-28T08:31:22;4.70;;;4.05;;
13801;SDS011;6972;51.518;6.918;2023-07-28T08:33:48;4.65;;;3.50;;
13801;SDS011;6972;51.518;6.918;2023-07-28T08:36:15;5.25;;;4.75;;
13801;SDS011;6972;51.518;6.918;2023-07-28T08:38:41;6.63;;;4.32;;
13801;SDS011;6972;51.518;6.918;2023-07-28T08:41:07;4.65;;;4.07;;
13801;SDS011;6972;51.518;6.918;2023-07-28T08:43:33;5.78;;;4.18;;
13801;SDS011;6972;51.518;6.918;2023-07-28T08:45:59;13.18;;;11.70;;
13801;SDS011;6972;51.518;6.918;2023-07-28T08:48:25;13.10;;;11.80;;
13801;SDS011;6972;51.518;6.918;2023-07-28T08:50:52;8.27;;;7.57;;
13801;SDS011;6972;51.518;6.918;2023-07-28T08:53:18;4.43;;;4.00;;
13801;SDS011;6972;51.518;6.918;2023-07-28T08:55:44;5.18;;;3.97;;
13801;SDS011;6972;51.518;6.918;2023-07-28T08:58:14;3.30;;;3.03;;
13801;SDS011;6972;51.518;6.918;2023-07-28T09:00:40;2.97;;;2.70;;
13801;SDS011;6972;51.518;6.918;2023-07-28T09:03:10;3.63;;;2.45;;
13801;SDS011;6972;51.518;6.918;2023-07-28T09:05:36;3.30;;;2.50;;
13801;SDS011;6972;51.518;6.918;2023-07-28T09:08:05;3.85;;;2.42;;
13801;SDS011;6972;51.518;6.918;2023-07-28T09:13:15;2.78;;;2.28;;
13801;SDS011;6972;51.518;6.918;2023-07-28T09:15:41;2.58;;;2.20;;
13801;SDS011;6972;51.518;6.918;2023-07-28T09:18:11;2.30;;;1.80;;
13801;SDS011;6972;51.518;6.918;2023-07-28T09:20:38;2.05;;;1.70;;
13801;SDS011;6972;51.518;6.918;2023-07-28T09:23:04;2.22;;;1.70;;
13801;SDS011;6972;51.518;6.918;2023-07-28T09:25:32;2.50;;;1.90;;
13801;SDS011;6972;51.518;6.918;2023-07-28T09:27:58;2.97;;;1.83;;
13801;SDS011;6972;51.518;6.918;2023-07-28T09:30:25;1.95;;;1.80;;
13801;SDS011;6972;51.518;6.918;2023-07-28T09:32:52;47.90;;;43.30;;
13801;SDS011;6972;51.518;6.918;2023-07-28T09:35:19;52.33;;;46.92;;
13801;SDS011;6972;51.518;6.918;2023-07-28T09:37:49;8.65;;;5.57;;
13801;SDS011;6972;51.518;6.918;2023-07-28T09:40:24;2.00;;;1.85;;
13801;SDS011;6972;51.518;6.918;2023-07-28T09:42:52;1.88;;;1.75;;
13801;SDS011;6972;51.518;6.918;2023-07-28T09:45:19;1.65;;;1.50;;
13801;SDS011;6972;51.518;6.918;2023-07-28T09:47:47;2.10;;;1.80;;
13801;SDS011;6972;51.518;6.918;2023-07-28T09:50:16;2.40;;;2.00;;
13801;SDS011;6972;51.518;6.918;2023-07-28T09:52:46;9.20;;;2.38;;
13801;SDS011;6972;51.518;6.918;2023-07-28T09:55:12;3.58;;;2.50;;
13801;SDS011;6972;51.518;6.918;2023-07-28T09:57:44;3.38;;;2.78;;
13801;SDS011;6972;51.518;6.918;2023-07-28T10:00:11;3.33;;;3.03;;
13801;SDS011;6972;51.518;6.918;2023-07-28T10:02:37;4.78;;;4.05;;
13801;SDS011;6972;51.518;6.918;2023-07-28T10:05:05;11.80;;;4.78;;
13801;SDS011;6972;51.518;6.918;2023-07-28T10:07:39;5.35;;;4.32;;
13801;SDS011;6972;51.518;6.918;2023-07-28T10:10:12;4.07;;;3.78;;
13801;SDS011;6972;51.518;6.918;2023-07-28T10:12:59;3.80;;;3.17;;
13801;SDS011;6972;51.518;6.918;2023-07-28T10:15:29;4.65;;;3.45;;
13801;SDS011;6972;51.518;6.918;2023-07-28T10:17:57;5.00;;;3.40;;
13801;SDS011;6972;51.518;6.918;2023-07-28T10:23:36;3.65;;;3.10;;
13801;SDS011;6972;51.518;6.918;2023-07-28T10:26:03;3.47;;;2.78;;
13801;SDS011;6972;51.518;6.918;2023-07-28T10:28:31;2.50;;;2.30;;
13801;SDS011;6972;51.518;6.918;2023-07-28T10:30:58;4.03;;;2.85;;
13801;SDS011;6972;51.518;6.918;2023-07-28T10:33:43;2.42;;;2.22;;
13801;SDS011;6972;51.518;6.918;2023-07-28T10:41:30;2.28;;;2.08;;
13801;SDS011;6972;51.518;6.918;2023-07-28T10:43:56;2.10;;;1.90;;
13801;SDS011;6972;51.518;6.918;2023-07-28T10:46:22;3.78;;;2.17;;
13801;SDS011;6972;51.518;6.918;2023-07-28T10:48:48;2.45;;;1.98;;
13801;SDS011;6972;51.518;6.918;2023-07-28T10:51:27;3.58;;;2.00;;
13801;SDS011;6972;51.518;6.918;2023-07-28T10:53:59;2.00;;;1.80;;
13801;SDS011;6972;51.518;6.918;2023-07-28T10:56:29;2.90;;;2.10;;
13801;SDS011;6972;51.518;6.918;2023-07-28T10:59:01;1.98;;;1.80;;
13801;SDS011;6972;51.518;6.918;2023-07-28T11:04:15;2.20;;;1.70;;
13801;SDS011;6972;51.518;6.918;2023-07-28T11:06:42;3.35;;;2.08;;
13801;SDS011;6972;51.518;6.918;2023-07-28T11:09:09;2.20;;;1.88;;
13801;SDS011;6972;51.518;6.918;2023-07-28T11:11:35;2.50;;;1.90;;
13801;SDS011;6972;51.518;6.918;2023-07-28T11:14:02;3.55;;;1.90;;
13801;SDS011;6972;51.518;6.918;2023-07-28T11:16:28;2.42;;;1.58;;
13801;SDS011;6972;51.518;6.918;2023-07-28T11:18:55;3.00;;;1.75;;
13801;SDS011;6972;51.518;6.918;2023-07-28T11:21:22;2.42;;;1.90;;
13801;SDS011;6972;51.518;6.918;2023-07-28T11:23:48;4.70;;;1.77;;
13801;SDS011;6972;51.518;6.918;2023-07-28T11:26:16;2.22;;;1.77;;
13801;SDS011;6972;51.518;6.918;2023-07-28T11:28:43;4.22;;;1.90;;
13801;SDS011;6972;51.518;6.918;2023-07-28T11:31:09;3.45;;;2.10;;
13801;SDS011;6972;51.518;6.918;2023-07-28T11:33:35;6.25;;;1.80;;
13801;SDS011;6972;51.518;6.918;2023-07-28T11:36:01;3.63;;;2.10;;
13801;SDS011;6972;51.518;6.918;2023-07-28T11:38:28;6.47;;;1.90;;
13801;SDS011;6972;51.518;6.918;2023-07-28T11:40:54;2.90;;;1.70;;
13801;SDS011;6972;51.518;6.918;2023-07-28T11:43:22;2.25;;;1.70;;
13801;SDS011;6972;51.518;6.918;2023-07-28T11:45:48;1.70;;;1.60;;
13801;SDS011;6972;51.518;6.918;2023-07-28T11:48:14;2.83;;;1.52;;
13801;SDS011;6972;51.518;6.918;2023-07-28T11:50:41;1.50;;;1.40;;
13801;SDS011;6972;51.518;6.918;2023-07-28T11:53:08;2.35;;;1.52;;
13801;SDS011;6972;51.518;6.918;2023-07-28T11:55:35;2.55;;;1.27;;
13801;SDS011;6972;51.518;6.918;2023-07-28T11:58:02;3.28;;;1.50;;
13801;SDS011;6972;51.518;6.918;2023-07-28T12:00:30;1.73;;;1.30;;
13801;SDS011;6972;51.518;6.918;2023-07-28T12:05:31;2.78;;;1.50;;
13801;SDS011;6972;51.518;6.918;2023-07-28T12:07:58;2.80;;;1.25;;
13801;SDS011;6972;51.518;6.918;2023-07-28T12:10:24;2.83;;;1.35;;
13801;SDS011;6972;51.518;6.918;2023-07-28T12:12:50;2.63;;;1.30;;
13801;SDS011;6972;51.518;6.918;2023-07-28T12:15:26;2.88;;;1.23;;
13801;SDS011;6972;51.518;6.918;2023-07-28T12:20:35;1.73;;;1.10;;
13801;SDS011;6972;51.518;6.918;2023-07-28T12:23:01;1.45;;;1.15;;
13801;SDS011;6972;51.518;6.918;2023-07-28T12:25:27;1.10;;;1.00;;
13801;SDS011;6972;51.518;6.918;2023-07-28T12:27:54;1.95;;;0.90;;
13801;SDS011;6972;51.518;6.918;2023-07-28T12:30:20;2.97;;;1.00;;
13801;SDS011;6972;51.518;6.918;2023-07-28T12:32:47;0.88;;;0.82;;
13801;SDS011;6972;51.518;6.918;2023-07-28T12:35:13;1.60;;;0.80;;
13801;SDS011;6972;51.518;6.918;2023-07-28T12:37:39;2.20;;;0.90;;
13801;SDS011;6972;51.518;6.918;2023-07-28T12:40:06;0.95;;;0.82;;
13801;SDS011;6972;51.518;6.918;2023-07-28T12:42:33;2.08;;;1.10;;
13801;SDS011;6972;51.518;6.918;2023-07-28T12:45:02;1.13;;;0.90;;
13801;SDS011;6972;51.518;6.918;2023-07-28T12:47:31;0.95;;;0.80;;
13801;SDS011;6972;51.518;6.918;2023-07-28T12:49:57;1.13;;;0.80;;
13801;SDS011;6972;51.518;6.918;2023-07-28T12:52:23;2.75;;;1.00;;
13801;SDS011;6972;51.518;6.918;2023-07-28T12:54:49;1.30;;;1.10;;
13801;SDS011;6972;51.518;6.918;2023-07-28T12:57:15;1.00;;;0.90;;
13801;SDS011;6972;51.518;6.918;2023-07-28T12:59:41;1.10;;;1.00;;
13801;SDS011;6972;51.518;6.918;2023-07-28T13:02:07;3.70;;;1.10;;
13801;SDS011;6972;51.518;6.918;2023-07-28T13:04:33;1.35;;;0.93;;
13801;SDS011;6972;51.518;6.918;2023-07-28T13:06:59;1.10;;;0.85;;
13801;SDS011;6972;51.518;6.918;2023-07-28T13:09:25;3.75;;;0.90;;
13801;SDS011;6972;51.518;6.918;2023-07-28T13:11:51;1.85;;;0.82;;
13801;SDS011;6972;51.518;6.918;2023-07-28T13:14:17;0.80;;;0.80;;
13801;SDS011;6972;51.518;6.918;2023-07-28T13:16:43;1.10;;;0.85;;
13801;SDS011;6972;51.518;6.918;2023-07-28T13:19:09;1.33;;;1.23;;
13801;SDS011;6972;51.518;6.918;2023-07-28T13:21:36;1.83;;;1.10;;
13801;SDS011;6972;51.518;6.918;2023-07-28T13:24:02;4.18;;;1.00;;
13801;SDS011;6972;51.518;6.918;2023-07-28T13:26:28;1.15;;;0.90;;
13801;SDS011;6972;51.518;6.918;2023-07-28T13:28:54;1.30;;;0.80;;
13801;SDS011;6972;51.518;6.918;2023-07-28T13:31:23;2.78;;;1.00;;
13801;SDS011;6972;51.518;6.918;2023-07-28T13:33:49;1.13;;;0.90;;
13801;SDS011;6972;51.518;6.918;2023-07-28T13:36:15;1.88;;;1.38;;
13801;SDS011;6972;51.518;6.918;2023-07-28T13:38:41;1.33;;;0.82;;
13801;SDS011;6972;51.518;6.918;2023-07-28T13:41:08;1.63;;;0.90;;
13801;SDS011;6972;51.518;6.918;2023-07-28T13:43:34;0.80;;;0.80;;
13801;SDS011;6972;51.518;6.918;2023-07-28T13:46:03;1.20;;;0.80;;
13801;SDS011;6972;51.518;6.918;2023-07-28T13:48:29;2.65;;;1.00;;
13801;SDS011;6972;51.518;6.918;2023-07-28T13:50:56;2.83;;;1.00;;
13801;SDS011;6972;51.518;6.918;2023-07-28T13:53:22;3.80;;;1.10;;
13801;SDS011;6972;51.518;6.918;2023-07-28T13:55:49;1.35;;;0.80;;
13801;SDS011;6972;51.518;6.918;2023-07-28T13:58:15;1.88;;;0.95;;
13801;SDS011;6972;51.518;6.918;2023-07-28T14:00:41;3.15;;;1.10;;
13801;SDS011;6972;51.518;6.918;2023-07-28T14:03:07;1.48;;;1.00;;
13801;SDS011;6972;51.518;6.918;2023-07-28T14:05:34;2.17;;;1.00;;
13801;SDS011;6972;51.518;6.918;2023-07-28T14:08:00;1.80;;;0.80;;
13801;SDS011;6972;51.518;6.918;2023-07-28T14:10:26;1.13;;;1.02;;
13801;SDS011;6972;51.518;6.918;2023-07-28T14:12:53;1.35;;;0.90;;
13801;SDS011;6972;51.518;6.918;2023-07-28T14:15:19;2.08;;;1.17;;
13801;SDS011;6972;51.518;6.918;2023-07-28T14:17:45;1.00;;;0.90;;
13801;SDS011;6972;51.518;6.918;2023-07-28T14:20:11;1.75;;;0.98;;
13801;SDS011;6972;51.518;6.918;2023-07-28T14:22:37;2.00;;;0.90;;
13801;SDS011;6972;51.518;6.918;2023-07-28T14:25:03;1.63;;;0.80;;
13801;SDS011;6972;51.518;6.918;2023-07-28T14:27:29;2.42;;;1.13;;
13801;SDS011;6972;51.518;6.918;2023-07-28T14:29:55;1.10;;;1.00;;
13801;SDS011;6972;51.518;6.918;2023-07-28T14:32:22;2.95;;;0.80;;
13801;SDS011;6972;51.518;6.918;2023-07-28T14:34:48;1.38;;;0.90;;
13801;SDS011;6972;51.518;6.918;2023-07-28T14:37:14;0.80;;;0.70;;
13801;SDS011;6972;51.518;6.918;2023-07-28T14:39:40;1.50;;;0.90;;
13801;SDS011;6972;51.518;6.918;2023-07-28T14:42:06;2.08;;;1.00;;
13801;SDS011;6972;51.518;6.918;2023-07-28T14:44:32;1.58;;;0.95;;
13801;SDS011;6972;51.518;6.918;2023-07-28T14:47:02;0.90;;;0.90;;
13801;SDS011;6972;51.518;6.918;2023-07-28T14:49:28;1.42;;;1.00;;
13801;SDS011;6972;51.518;6.918;2023-07-28T14:51:54;0.93;;;0.82;;
13801;SDS011;6972;51.518;6.918;2023-07-28T14:54:20;1.10;;;1.00;;
13801;SDS011;6972;51.518;6.918;2023-07-28T14:56:46;4.05;;;0.80;;
13801;SDS011;6972;51.518;6.918;2023-07-28T14:59:12;1.02;;;0.93;;
13801;SDS011;6972;51.518;6.918;2023-07-28T15:01:39;2.55;;;0.90;;
13801;SDS011;6972;51.518;6.918;2023-07-28T15:04:05;1.35;;;0.90;;
13801;SDS011;6972;51.518;6.918;2023-07-28T15:06:36;1.98;;;1.20;;
13801;SDS011;6972;51.518;6.918;2023-07-28T15:09:02;2.92;;;1.10;;
13801;SDS011;6972;51.518;6.918;2023-07-28T15:11:28;1.63;;;0.98;;
13801;SDS011;6972;51.518;6.918;2023-07-28T15:13:54;3.45;;;1.23;;
13801;SDS011;6972;51.518;6.918;2023-07-28T15:16:20;1.50;;;1.20;;
13801;SDS011;6972;51.518;6.918;2023-07-28T15:18:46;2.42;;;1.20;;